createdAt,value
2023-01-10T00:02:02.406Z,29.00
2023-01-10T00:04:30.949Z,28.35
2023-01-10T00:06:58.411Z,28.70
2023-01-10T00:09:25.964Z,29.90
2023-01-10T00:12:11.659Z,29.02
2023-01-10T00:14:39.386Z,28.50
2023-01-10T00:17:06.653Z,27.10
2023-01-10T00:19:34.282Z,28.98
2023-01-10T00:22:05.806Z,23.98
2023-01-10T00:24:33.369Z,27.80
2023-01-10T00:27:00.766Z,21.73
2023-01-10T00:29:35.345Z,26.65
2023-01-10T00:32:02.660Z,28.38
2023-01-10T00:34:31.238Z,26.60
2023-01-10T00:36:58.603Z,25.42
2023-01-10T00:39:27.711Z,24.90
2023-01-10T00:42:13.305Z,22.17
2023-01-10T00:44:40.877Z,25.02
2023-01-10T00:47:08.166Z,24.50
2023-01-10T00:49:35.680Z,20.70
2023-01-10T00:52:02.996Z,22.50
2023-01-10T00:54:30.649Z,22.60
2023-01-10T00:56:58.205Z,19.67
2023-01-10T00:59:25.851Z,23.63
2023-01-10T01:01:53.585Z,21.90
2023-01-10T01:04:22.241Z,21.67
2023-01-10T01:06:50.888Z,21.38
2023-01-10T01:09:18.648Z,20.90
2023-01-10T01:11:45.994Z,19.50
2023-01-10T01:14:13.660Z,19.85
2023-01-10T01:16:40.936Z,20.70
2023-01-10T01:19:08.505Z,21.30
2023-01-10T01:21:35.776Z,19.08
2023-01-10T01:24:03.434Z,19.17
2023-01-10T01:26:30.794Z,19.15
2023-01-10T01:28:58.440Z,18.90
2023-01-10T01:31:26.005Z,18.38
2023-01-10T01:33:53.854Z,20.23
2023-01-10T01:36:21.186Z,16.65
2023-01-10T01:38:48.759Z,18.42
2023-01-10T01:41:34.600Z,21.58
2023-01-10T01:44:14.975Z,17.02
2023-01-10T01:46:49.296Z,17.50
2023-01-10T01:49:24.949Z,15.25
2023-01-10T01:52:04.637Z,20.52
2023-01-10T01:54:34.405Z,17.17
2023-01-10T01:57:12.417Z,16.05
2023-01-10T01:59:46.921Z,19.75
2023-01-10T02:02:22.792Z,19.02
2023-01-10T02:05:03.464Z,17.65
2023-01-10T02:07:37.975Z,18.50
2023-01-10T02:10:48.989Z,16.38
2023-01-10T02:13:22.257Z,17.13
2023-01-10T02:15:50.838Z,17.33
2023-01-10T02:18:19.439Z,16.23
2023-01-10T02:21:09.687Z,15.65
2023-01-10T02:24:16.407Z,18.10
2023-01-10T02:27:17.262Z,18.60
2023-01-10T02:31:02.563Z,19.50
2023-01-10T02:34:11.475Z,20.00
2023-01-10T02:36:44.567Z,19.25
2023-01-10T02:39:58.400Z,21.52
2023-01-10T02:42:58.407Z,20.67
2023-01-10T02:45:42.493Z,20.38
2023-01-10T02:48:09.987Z,21.45
2023-01-10T02:50:43.358Z,22.20
2023-01-10T02:53:23.195Z,19.70
2023-01-10T02:56:05.345Z,21.52
2023-01-10T02:58:41.061Z,21.45
2023-01-10T03:01:51.057Z,17.70
2023-01-10T03:04:27.259Z,22.17
2023-01-10T03:07:09.685Z,19.45
2023-01-10T03:10:10.221Z,19.42
2023-01-10T03:13:02.252Z,19.73
2023-01-10T03:15:37.200Z,16.80
2023-01-10T03:18:14.299Z,14.90
2023-01-10T03:20:46.249Z,11.63
2023-01-10T03:23:17.029Z,13.45
2023-01-10T03:25:48.268Z,11.55
2023-01-10T03:28:26.345Z,13.38
2023-01-10T03:31:10.143Z,10.55
2023-01-10T03:33:39.066Z,9.93
2023-01-10T03:37:05.814Z,10.05
2023-01-10T03:40:08.648Z,8.20
2023-01-10T03:43:44.466Z,10.20
2023-01-10T03:46:26.305Z,8.50
2023-01-10T03:48:57.769Z,7.68
2023-01-10T03:51:27.727Z,10.13
2023-01-10T03:53:55.085Z,16.20
2023-01-10T03:56:22.697Z,14.25
2023-01-10T03:58:50.012Z,16.20
2023-01-10T04:01:17.665Z,15.93
2023-01-10T04:03:45.122Z,16.40
2023-01-10T04:06:12.714Z,14.98
2023-01-10T04:08:40.050Z,12.98
2023-01-10T04:11:07.632Z,13.10
2023-01-10T04:13:35.558Z,15.57
2023-01-10T04:16:03.153Z,17.75
2023-01-10T04:18:30.424Z,18.30
2023-01-10T04:20:57.942Z,14.77
2023-01-10T04:23:25.210Z,20.48
2023-01-10T04:25:52.713Z,27.83
2023-01-10T04:28:19.961Z,23.08
2023-01-10T04:30:47.459Z,22.85
2023-01-10T04:33:14.650Z,24.63
2023-01-10T04:35:51.199Z,21.80
2023-01-10T04:38:19.207Z,25.30
2023-01-10T04:40:57.094Z,22.60
2023-01-10T04:43:25.630Z,27.48
2023-01-10T04:45:53.313Z,25.90
2023-01-10T04:48:20.692Z,26.20
2023-01-10T04:50:52.555Z,24.02
2023-01-10T04:53:21.410Z,26.63
2023-01-10T04:55:49.291Z,29.10
2023-01-10T04:58:16.746Z,22.77
2023-01-10T05:00:44.387Z,26.55
2023-01-10T05:03:11.785Z,27.27
2023-01-10T05:05:39.323Z,24.50
2023-01-10T05:08:06.620Z,25.60
2023-01-10T05:10:34.088Z,28.17
2023-01-10T05:13:01.334Z,22.75
2023-01-10T05:15:28.892Z,26.67
2023-01-10T05:18:00.937Z,27.52
2023-01-10T05:20:28.551Z,27.67
2023-01-10T05:22:55.848Z,23.65
2023-01-10T05:25:23.382Z,25.48
2023-01-10T05:27:50.746Z,27.67
2023-01-10T05:30:18.886Z,31.85
2023-01-10T05:32:46.370Z,31.77
2023-01-10T05:35:14.161Z,29.17
2023-01-10T05:37:41.421Z,26.42
2023-01-10T05:40:10.477Z,28.85
2023-01-10T05:42:37.899Z,31.95
2023-01-10T05:45:06.187Z,33.40
2023-01-10T05:47:33.440Z,32.85
2023-01-10T05:50:00.986Z,31.48
2023-01-10T05:52:28.332Z,34.38
2023-01-10T05:54:55.903Z,34.95
2023-01-10T05:57:24.758Z,33.08
2023-01-10T05:59:52.813Z,33.10
2023-01-10T06:02:20.092Z,29.42
2023-01-10T06:04:47.825Z,30.23
2023-01-10T06:07:15.471Z,29.13
2023-01-10T06:09:43.184Z,28.13
2023-01-10T06:12:10.569Z,26.42
2023-01-10T06:14:38.129Z,29.80
2023-01-10T06:17:10.097Z,22.92
2023-01-10T06:19:37.712Z,25.98
2023-01-10T06:22:05.414Z,25.63
2023-01-10T06:24:32.904Z,25.27
2023-01-10T06:27:00.194Z,25.80
2023-01-10T06:29:27.849Z,27.20
2023-01-10T06:31:55.370Z,25.58
2023-01-10T06:34:22.929Z,26.75
2023-01-10T06:36:50.192Z,30.65
2023-01-10T06:39:17.812Z,28.20
2023-01-10T06:41:45.078Z,31.48
2023-01-10T06:44:12.762Z,23.05
2023-01-10T06:46:40.239Z,27.52
2023-01-10T06:49:08.745Z,25.92
2023-01-10T06:51:36.117Z,24.05
2023-01-10T06:54:03.774Z,28.90
2023-01-10T06:56:31.183Z,30.63
2023-01-10T06:58:58.745Z,39.58
2023-01-10T07:01:26.688Z,35.58
2023-01-10T07:03:54.391Z,30.75
2023-01-10T07:06:21.676Z,26.65
2023-01-10T07:08:49.293Z,25.83
2023-01-10T07:11:17.840Z,22.48
2023-01-10T07:13:45.426Z,24.02
2023-01-10T07:16:16.366Z,30.27
2023-01-10T07:18:44.560Z,32.88
2023-01-10T07:21:13.055Z,29.95
2023-01-10T07:23:40.619Z,27.92
2023-01-10T07:26:11.955Z,30.40
2023-01-10T07:28:39.544Z,28.55
2023-01-10T07:31:06.976Z,23.10
2023-01-10T07:33:34.530Z,24.33
2023-01-10T07:36:03.132Z,30.08
2023-01-10T07:38:30.820Z,23.83
2023-01-10T07:40:58.087Z,19.88
2023-01-10T07:43:25.657Z,23.40
2023-01-10T07:45:53.033Z,20.15
2023-01-10T07:48:20.721Z,17.52
2023-01-10T07:50:48.013Z,18.52
2023-01-10T07:53:15.896Z,17.65
2023-01-10T07:55:45.839Z,13.73
2023-01-10T07:58:13.403Z,11.82
2023-01-10T08:00:40.689Z,12.55
2023-01-10T08:03:10.846Z,14.10
2023-01-10T08:05:38.536Z,13.82
2023-01-10T08:08:08.078Z,13.57
2023-01-10T08:10:37.278Z,15.52
2023-01-10T08:13:17.940Z,20.83
2023-01-10T08:15:50.311Z,18.63
2023-01-10T08:18:19.937Z,22.60
2023-01-10T08:20:50.733Z,22.35
2023-01-10T08:23:20.574Z,20.55
2023-01-10T08:25:48.448Z,33.38
2023-01-10T08:28:16.164Z,24.10
2023-01-10T08:30:44.110Z,24.60
2023-01-10T08:33:12.591Z,23.05
2023-01-10T08:35:43.119Z,27.17
2023-01-10T08:38:11.795Z,24.02
2023-01-10T08:40:39.272Z,23.95
2023-01-10T08:43:11.732Z,24.08
2023-01-10T08:45:39.823Z,22.75
2023-01-10T08:48:09.543Z,25.25
2023-01-10T08:50:37.354Z,22.70
2023-01-10T08:53:05.502Z,24.70
2023-01-10T08:55:35.744Z,20.73
2023-01-10T08:58:03.723Z,23.27
2023-01-10T09:00:31.415Z,23.05
2023-01-10T09:02:59.127Z,27.83
2023-01-10T09:05:28.002Z,27.17
2023-01-10T09:08:02.041Z,34.75
2023-01-10T09:10:30.373Z,33.65
2023-01-10T09:13:01.686Z,31.63
2023-01-10T09:15:35.766Z,29.85
2023-01-10T09:18:07.320Z,27.15
2023-01-10T09:20:41.047Z,31.95
2023-01-10T09:23:12.585Z,31.73
2023-01-10T09:25:39.854Z,33.15
2023-01-10T09:28:07.641Z,28.45
2023-01-10T09:30:35.567Z,30.50
2023-01-10T09:33:04.347Z,30.23
2023-01-10T09:35:35.687Z,31.70
2023-01-10T09:38:06.679Z,35.17
2023-01-10T09:40:55.797Z,32.05
2023-01-10T09:43:28.902Z,42.38
2023-01-10T09:46:18.112Z,53.22
2023-01-10T09:49:13.748Z,47.92
2023-01-10T09:51:52.401Z,38.92
2023-01-10T09:54:31.810Z,40.38
2023-01-10T09:57:02.077Z,40.67
2023-01-10T09:59:43.053Z,42.53
2023-01-10T10:02:44.506Z,44.88
2023-01-10T10:05:25.203Z,41.33
2023-01-10T10:08:00.352Z,44.45
2023-01-10T10:10:39.971Z,45.42
2023-01-10T10:13:28.097Z,40.70
2023-01-10T10:16:10.761Z,36.50
2023-01-10T10:18:50.027Z,41.67
2023-01-10T10:22:07.479Z,36.38
2023-01-10T10:25:14.986Z,34.25
2023-01-10T10:28:13.059Z,31.33
2023-01-10T10:31:13.903Z,31.13
2023-01-10T10:34:29.245Z,35.88
2023-01-10T10:37:18.907Z,36.30
2023-01-10T10:40:11.873Z,37.13
2023-01-10T10:42:51.074Z,34.17
2023-01-10T10:45:46.335Z,33.88
2023-01-10T10:48:27.563Z,31.35
2023-01-10T10:51:36.534Z,31.10
2023-01-10T10:54:04.106Z,32.90
2023-01-10T10:56:32.474Z,32.55
2023-01-10T10:59:01.038Z,27.52
2023-01-10T11:01:28.833Z,30.50
2023-01-10T11:04:08.954Z,34.90
2023-01-10T11:06:41.123Z,33.60
2023-01-10T11:09:08.769Z,35.08
2023-01-10T11:11:45.740Z,30.30
2023-01-10T11:14:13.755Z,33.22
2023-01-10T11:16:45.090Z,35.17
2023-01-10T11:19:15.564Z,36.22
2023-01-10T11:21:57.679Z,38.67
2023-01-10T11:24:51.736Z,36.08
2023-01-10T11:27:25.907Z,35.88
2023-01-10T11:30:00.726Z,30.80
2023-01-10T11:32:40.036Z,35.28
2023-01-10T11:35:34.492Z,34.85
2023-01-10T11:38:19.975Z,35.67
2023-01-10T11:41:06.768Z,39.60
2023-01-10T11:43:41.083Z,37.15
2023-01-10T11:46:23.190Z,35.40
2023-01-10T11:49:14.926Z,33.63
2023-01-10T11:51:58.574Z,37.25
2023-01-10T11:54:29.628Z,34.63
2023-01-10T11:57:14.712Z,36.65
2023-01-10T11:59:56.618Z,34.83
2023-01-10T12:02:29.704Z,37.30
2023-01-10T12:05:04.351Z,37.97
2023-01-10T12:07:56.310Z,41.55
2023-01-10T12:10:27.746Z,38.28
2023-01-10T12:13:08.279Z,37.42
2023-01-10T12:15:36.807Z,34.67
2023-01-10T12:18:06.992Z,38.10
2023-01-10T12:20:52.118Z,37.83
2023-01-10T12:23:25.385Z,32.53
2023-01-10T12:26:07.094Z,33.85
2023-01-10T12:28:44.089Z,28.30
2023-01-10T12:31:15.554Z,35.15
2023-01-10T12:33:51.578Z,31.63
2023-01-10T12:36:36.145Z,32.17
2023-01-10T12:40:02.366Z,31.45
2023-01-10T12:43:10.408Z,30.00
2023-01-10T12:45:57.058Z,37.58
2023-01-10T12:49:13.901Z,35.95
2023-01-10T12:51:43.462Z,35.50
2023-01-10T12:54:22.279Z,41.08
2023-01-10T12:56:51.064Z,46.30
2023-01-10T12:59:37.313Z,51.45
2023-01-10T13:02:19.720Z,45.78
2023-01-10T13:04:59.881Z,38.78
2023-01-10T13:07:33.702Z,24.52
2023-01-10T13:10:07.264Z,24.95
2023-01-10T13:12:43.232Z,23.70
2023-01-10T13:15:38.743Z,21.58
2023-01-10T13:18:26.131Z,27.40
2023-01-10T13:21:13.813Z,27.73
2023-01-10T13:23:50.536Z,27.67
2023-01-10T13:26:19.503Z,24.80
2023-01-10T13:29:01.682Z,26.13
2023-01-10T13:31:35.360Z,26.77
2023-01-10T13:34:11.422Z,27.00
2023-01-10T13:37:00.515Z,24.98
2023-01-10T13:39:41.782Z,27.17
2023-01-10T13:42:27.861Z,24.67
2023-01-10T13:45:01.507Z,22.83
2023-01-10T13:47:43.328Z,21.77
2023-01-10T13:50:25.848Z,28.13
2023-01-10T13:53:04.396Z,22.17
2023-01-10T13:55:42.843Z,24.75
2023-01-10T13:58:13.439Z,24.38
2023-01-10T14:00:59.449Z,24.70
2023-01-10T14:04:00.002Z,24.23
2023-01-10T14:06:30.848Z,24.75
2023-01-10T14:09:24.640Z,24.75
2023-01-10T14:11:58.926Z,22.95
2023-01-10T14:14:37.256Z,27.38
2023-01-10T14:17:29.803Z,28.48
2023-01-10T14:20:16.805Z,27.83
2023-01-10T14:23:07.904Z,30.90
2023-01-10T14:25:38.194Z,30.70
2023-01-10T14:28:20.382Z,28.00
2023-01-10T14:31:01.400Z,28.17
2023-01-10T14:33:30.280Z,28.38
2023-01-10T14:36:06.581Z,32.85
2023-01-10T14:38:38.992Z,32.22
2023-01-10T14:41:27.343Z,31.10
2023-01-10T14:44:02.668Z,29.65
2023-01-10T14:46:55.223Z,32.38
2023-01-10T14:49:26.040Z,29.33
2023-01-10T14:52:01.039Z,28.45
2023-01-10T14:54:29.557Z,28.60
2023-01-10T14:56:57.690Z,29.42
2023-01-10T14:59:34.545Z,24.35
2023-01-10T15:02:24.803Z,34.28
2023-01-10T15:04:58.187Z,29.90
2023-01-10T15:07:28.478Z,27.58
2023-01-10T15:10:02.592Z,28.70
2023-01-10T15:12:35.258Z,30.35
2023-01-10T15:15:15.932Z,33.30
2023-01-10T15:17:45.817Z,36.75
2023-01-10T15:20:19.240Z,31.50
2023-01-10T15:23:01.398Z,34.00
2023-01-10T15:25:38.146Z,35.00
2023-01-10T15:28:15.411Z,29.02
2023-01-10T15:30:44.207Z,32.00
2023-01-10T15:33:23.072Z,30.27
2023-01-10T15:35:50.527Z,33.28
2023-01-10T15:38:27.348Z,33.30
2023-01-10T15:41:06.144Z,34.45
2023-01-10T15:43:36.863Z,37.67
2023-01-10T15:46:06.247Z,35.30
2023-01-10T15:48:43.817Z,39.67
2023-01-10T15:51:15.313Z,33.15
2023-01-10T15:54:10.556Z,34.05
2023-01-10T15:56:47.647Z,39.13
2023-01-10T15:59:33.726Z,37.88
2023-01-10T16:02:22.944Z,39.42
2023-01-10T16:04:57.489Z,44.33
2023-01-10T16:07:42.040Z,41.78
2023-01-10T16:10:27.204Z,40.20
2023-01-10T16:13:28.916Z,46.15
2023-01-10T16:16:01.373Z,39.60
2023-01-10T16:18:28.755Z,41.33
2023-01-10T16:21:00.944Z,46.55
2023-01-10T16:23:36.258Z,42.83
2023-01-10T16:26:09.519Z,40.33
2023-01-10T16:28:38.010Z,38.53
2023-01-10T16:31:14.803Z,44.40
2023-01-10T16:33:42.258Z,41.97
2023-01-10T16:36:20.982Z,45.00
2023-01-10T16:38:48.684Z,50.50
2023-01-10T16:41:35.002Z,48.72
2023-01-10T16:44:02.662Z,47.90
2023-01-10T16:46:31.169Z,44.28
2023-01-10T16:48:58.570Z,36.35
2023-01-10T16:51:32.699Z,44.90
2023-01-10T16:54:00.851Z,38.85
2023-01-10T16:56:30.104Z,35.50
2023-01-10T16:58:58.168Z,36.92
2023-01-10T17:01:34.953Z,34.53
2023-01-10T17:04:04.784Z,36.10
2023-01-10T17:06:32.570Z,34.17
2023-01-10T17:08:59.987Z,30.88
2023-01-10T17:11:37.292Z,35.38
2023-01-10T17:14:05.615Z,28.75
2023-01-10T17:16:35.296Z,29.13
2023-01-10T17:19:02.787Z,30.05
2023-01-10T17:21:30.396Z,30.85
2023-01-10T17:23:57.685Z,30.83
2023-01-10T17:26:25.384Z,35.15
2023-01-10T17:28:52.655Z,29.90
2023-01-10T17:31:20.508Z,34.60
2023-01-10T17:33:51.046Z,38.97
2023-01-10T17:36:19.600Z,43.78
2023-01-10T17:38:47.190Z,37.40
2023-01-10T17:41:15.014Z,36.05
2023-01-10T17:43:42.314Z,36.20
2023-01-10T17:46:11.130Z,33.35
2023-01-10T17:48:38.972Z,31.60
2023-01-10T17:51:07.709Z,33.40
2023-01-10T17:53:35.448Z,34.95
2023-01-10T17:56:05.884Z,34.15
2023-01-10T17:58:35.052Z,34.42
2023-01-10T18:01:02.546Z,30.10
2023-01-10T18:03:30.180Z,35.13
2023-01-10T18:05:59.427Z,37.10
2023-01-10T18:08:27.272Z,39.05
2023-01-10T18:11:04.615Z,35.70
2023-01-10T18:13:32.276Z,30.63
2023-01-10T18:16:01.640Z,34.95
2023-01-10T18:18:30.683Z,33.33
2023-01-10T18:21:01.051Z,30.20
2023-01-10T18:23:30.838Z,29.92
2023-01-10T18:26:04.345Z,33.15
2023-01-10T18:28:42.945Z,34.95
2023-01-10T18:31:18.916Z,36.78
2023-01-10T18:33:48.062Z,35.95
2023-01-10T18:36:24.370Z,35.25
2023-01-10T18:38:53.044Z,31.25
2023-01-10T18:41:21.624Z,31.80
2023-01-10T18:43:49.741Z,31.90
2023-01-10T18:46:21.967Z,32.45
2023-01-10T18:48:52.960Z,28.20
2023-01-10T18:51:22.719Z,35.05
2023-01-10T18:53:53.016Z,38.95
2023-01-10T18:56:20.546Z,38.13
2023-01-10T18:58:48.232Z,37.33
2023-01-10T19:01:20.047Z,32.45
2023-01-10T19:03:48.242Z,35.85
2023-01-10T19:06:18.310Z,34.40
2023-01-10T19:08:47.482Z,35.58
2023-01-10T19:11:16.686Z,34.40
2023-01-10T19:13:47.133Z,40.92
2023-01-10T19:16:26.469Z,49.58
2023-01-10T19:18:57.864Z,43.22
2023-01-10T19:21:27.521Z,63.08
2023-01-10T19:23:59.746Z,49.78
2023-01-10T19:26:27.606Z,45.08
2023-01-10T19:28:55.226Z,43.13
2023-01-10T19:31:26.931Z,40.10
2023-01-10T19:33:58.849Z,39.53
2023-01-10T19:36:26.906Z,38.15
2023-01-10T19:38:57.491Z,39.10
2023-01-10T19:41:27.946Z,38.13
2023-01-10T19:44:01.394Z,38.30
2023-01-10T19:46:32.335Z,34.53
2023-01-10T19:49:07.868Z,36.47
2023-01-10T19:51:40.791Z,35.13
2023-01-10T19:54:09.174Z,35.00
2023-01-10T19:56:37.080Z,31.95
2023-01-10T19:59:04.712Z,35.08
2023-01-10T20:01:32.366Z,36.70
2023-01-10T20:04:06.549Z,33.75
2023-01-10T20:06:39.047Z,37.88
2023-01-10T20:09:08.664Z,39.58
2023-01-10T20:11:40.458Z,39.17
2023-01-10T20:14:20.620Z,38.45
2023-01-10T20:16:49.095Z,47.20
2023-01-10T20:19:17.641Z,43.88
2023-01-10T20:21:45.045Z,44.85
2023-01-10T20:24:19.221Z,46.42
2023-01-10T20:26:49.798Z,41.08
2023-01-10T20:29:18.959Z,40.28
2023-01-10T20:31:49.728Z,41.85
2023-01-10T20:34:17.461Z,36.88
2023-01-10T20:36:44.870Z,44.05
2023-01-10T20:39:12.721Z,40.95
2023-01-10T20:41:40.090Z,39.15
2023-01-10T20:44:07.730Z,40.63
2023-01-10T20:46:36.796Z,39.25
2023-01-10T20:49:04.703Z,39.10
2023-01-10T20:51:35.497Z,43.90
2023-01-10T20:54:05.964Z,41.42
2023-01-10T20:56:33.443Z,38.80
2023-01-10T20:59:01.759Z,41.75
2023-01-10T21:01:35.179Z,49.05
2023-01-10T21:04:06.564Z,58.47
2023-01-10T21:06:35.479Z,57.35
2023-01-10T21:09:04.639Z,51.97
2023-01-10T21:11:36.733Z,54.33
2023-01-10T21:14:13.212Z,52.35
2023-01-10T21:16:40.440Z,57.55
2023-01-10T21:19:10.527Z,57.47
2023-01-10T21:21:38.466Z,56.97
2023-01-10T21:24:06.569Z,58.25
2023-01-10T21:26:33.909Z,58.22
2023-01-10T21:29:02.557Z,55.65
2023-01-10T21:31:30.064Z,70.93
2023-01-10T21:33:57.670Z,78.57
2023-01-10T21:36:25.113Z,74.88
2023-01-10T21:38:52.849Z,60.42
2023-01-10T21:41:39.379Z,57.00
2023-01-10T21:44:08.107Z,54.58
2023-01-10T21:46:36.469Z,50.45
2023-01-10T21:49:04.986Z,49.72
2023-01-10T21:51:32.328Z,46.17
2023-01-10T21:53:59.924Z,48.00
2023-01-10T21:56:27.181Z,50.45
2023-01-10T21:58:54.695Z,48.55
2023-01-10T22:01:22.078Z,49.97
2023-01-10T22:03:49.721Z,46.30
2023-01-10T22:06:17.230Z,57.78
2023-01-10T22:08:44.803Z,51.65
2023-01-10T22:11:12.168Z,51.47
2023-01-10T22:13:40.306Z,52.67
2023-01-10T22:16:08.109Z,50.47
2023-01-10T22:18:35.827Z,51.50
2023-01-10T22:21:03.453Z,44.95
2023-01-10T22:23:31.286Z,53.55
2023-01-10T22:26:05.600Z,59.42
2023-01-10T22:28:34.307Z,62.22
2023-01-10T22:31:02.619Z,50.05
2023-01-10T22:33:35.018Z,59.42
2023-01-10T22:36:06.606Z,63.90
2023-01-10T22:38:34.925Z,63.60
2023-01-10T22:41:15.146Z,68.28
2023-01-10T22:43:43.512Z,65.80
2023-01-10T22:46:11.238Z,56.78
2023-01-10T22:48:38.893Z,58.58
2023-01-10T22:51:06.942Z,56.10
2023-01-10T22:53:35.512Z,57.33
2023-01-10T22:56:06.004Z,50.58
2023-01-10T22:58:47.814Z,53.17
2023-01-10T23:01:19.581Z,54.45
2023-01-10T23:03:47.838Z,51.83
2023-01-10T23:06:17.224Z,44.63
2023-01-10T23:08:45.297Z,48.28
2023-01-10T23:11:17.382Z,46.85
2023-01-10T23:13:46.671Z,48.42
2023-01-10T23:16:20.287Z,49.80
2023-01-10T23:18:49.591Z,51.72
2023-01-10T23:21:17.046Z,52.97
2023-01-10T23:23:44.651Z,55.03
2023-01-10T23:26:13.521Z,53.72
2023-01-10T23:28:50.803Z,50.22
2023-01-10T23:31:22.537Z,54.90
2023-01-10T23:33:51.375Z,51.67
2023-01-10T23:36:19.149Z,51.47
2023-01-10T23:38:46.787Z,56.22
2023-01-10T23:41:14.211Z,55.15
2023-01-10T23:43:42.800Z,57.35
2023-01-10T23:46:10.424Z,58.88
2023-01-10T23:48:38.226Z,51.40
2023-01-10T23:51:07.885Z,47.00
2023-01-10T23:53:35.495Z,43.85
2023-01-10T23:56:14.945Z,42.40
2023-01-10T23:58:42.531Z,40.72
